createdAt,value
2022-10-23T00:00:25.358Z,12.10
2022-10-23T00:02:54.329Z,12.10
2022-10-23T00:05:17.780Z,12.00
2022-10-23T00:07:41.436Z,12.00
2022-10-23T00:10:07.470Z,12.00
2022-10-23T00:12:30.696Z,12.00
2022-10-23T00:14:53.920Z,11.90
2022-10-23T00:17:17.230Z,11.90
2022-10-23T00:19:40.402Z,11.80
2022-10-23T00:22:03.644Z,11.80
2022-10-23T00:24:26.873Z,11.80
2022-10-23T00:26:52.061Z,11.70
2022-10-23T00:29:15.325Z,11.70
2022-10-23T00:31:39.457Z,11.60
2022-10-23T00:34:04.070Z,11.60
2022-10-23T00:36:27.601Z,11.70
2022-10-23T00:38:52.445Z,11.60
2022-10-23T00:41:19.292Z,11.60
2022-10-23T00:44:05.227Z,11.50
2022-10-23T00:46:29.135Z,11.60
2022-10-23T00:48:52.708Z,11.50
2022-10-23T00:51:16.452Z,11.50
2022-10-23T00:53:40.614Z,11.50
2022-10-23T00:56:03.949Z,11.50
2022-10-23T00:58:27.213Z,11.60
2022-10-23T01:00:55.145Z,11.60
2022-10-23T01:03:21.752Z,11.60
2022-10-23T01:05:51.653Z,11.60
2022-10-23T01:08:24.620Z,11.50
2022-10-23T01:10:53.982Z,11.50
2022-10-23T01:13:25.436Z,11.50
2022-10-23T01:15:54.975Z,11.50
2022-10-23T01:18:24.156Z,11.60
2022-10-23T01:20:56.435Z,11.80
2022-10-23T01:23:58.672Z,11.80
2022-10-23T01:26:47.767Z,11.90
2022-10-23T01:29:21.085Z,11.90
2022-10-23T01:31:51.464Z,11.90
2022-10-23T01:34:19.066Z,11.90
2022-10-23T01:36:46.872Z,11.90
2022-10-23T01:39:16.644Z,12.00
2022-10-23T01:41:47.004Z,12.00
2022-10-23T01:44:23.736Z,12.10
2022-10-23T01:46:49.815Z,12.10
2022-10-23T01:49:15.189Z,12.20
2022-10-23T01:51:42.702Z,12.20
2022-10-23T01:54:11.086Z,12.30
2022-10-23T01:56:39.311Z,12.50
2022-10-23T01:59:06.903Z,12.50
2022-10-23T02:01:38.347Z,12.40
2022-10-23T02:04:06.666Z,12.40
2022-10-23T02:06:30.052Z,12.50
2022-10-23T02:08:53.389Z,12.50
2022-10-23T02:11:20.837Z,12.50
2022-10-23T02:13:51.087Z,12.50
2022-10-23T02:16:24.522Z,12.50
2022-10-23T02:18:56.848Z,12.50
2022-10-23T02:21:28.627Z,12.50
2022-10-23T02:23:57.880Z,12.50
2022-10-23T02:26:25.343Z,12.60
2022-10-23T02:28:55.568Z,12.60
2022-10-23T02:31:23.675Z,12.60
2022-10-23T02:33:49.439Z,12.60
2022-10-23T02:36:13.826Z,12.70
2022-10-23T02:38:40.422Z,12.60
2022-10-23T02:41:39.465Z,12.70
2022-10-23T02:44:29.181Z,12.70
2022-10-23T02:47:01.232Z,12.80
2022-10-23T02:49:36.751Z,12.70
2022-10-23T02:52:13.977Z,12.70
2022-10-23T02:54:51.429Z,12.60
2022-10-23T02:57:24.677Z,12.60
2022-10-23T02:59:54.735Z,12.50
2022-10-23T03:02:23.333Z,12.50
2022-10-23T03:04:49.143Z,12.40
2022-10-23T03:07:14.232Z,12.40
2022-10-23T03:09:39.180Z,12.50
2022-10-23T03:12:02.524Z,12.50
2022-10-23T03:14:29.540Z,12.40
2022-10-23T03:16:52.940Z,12.50
2022-10-23T03:19:17.002Z,12.50
2022-10-23T03:21:41.670Z,12.60
2022-10-23T03:24:05.888Z,12.70
2022-10-23T03:26:34.195Z,12.70
2022-10-23T03:28:57.537Z,12.80
2022-10-23T03:31:20.887Z,12.80
2022-10-23T03:33:46.475Z,12.80
2022-10-23T03:36:10.960Z,12.80
2022-10-23T03:38:35.724Z,12.90
2022-10-23T03:41:00.627Z,12.90
2022-10-23T03:43:24.935Z,12.90
2022-10-23T03:45:48.220Z,12.90
2022-10-23T03:48:13.210Z,12.90
2022-10-23T03:50:37.071Z,12.90
2022-10-23T03:53:01.832Z,13.00
2022-10-23T03:55:27.121Z,13.00
2022-10-23T03:57:50.445Z,13.00
2022-10-23T04:00:17.722Z,13.00
2022-10-23T04:02:41.349Z,13.00
2022-10-23T04:05:05.613Z,13.00
2022-10-23T04:07:29.947Z,13.00
2022-10-23T04:09:56.432Z,13.00
2022-10-23T04:12:21.911Z,13.00
2022-10-23T04:14:45.080Z,13.00
2022-10-23T04:17:09.133Z,13.00
2022-10-23T04:19:32.405Z,13.00
2022-10-23T04:21:57.046Z,13.00
2022-10-23T04:24:20.273Z,13.00
2022-10-23T04:26:44.130Z,13.00
2022-10-23T04:29:08.958Z,13.10
2022-10-23T04:31:32.368Z,13.10
2022-10-23T04:33:55.655Z,13.10
2022-10-23T04:36:25.515Z,13.20
2022-10-23T04:38:48.959Z,13.20
2022-10-23T04:41:12.243Z,13.20
2022-10-23T04:43:35.570Z,13.20
2022-10-23T04:46:02.466Z,13.20
2022-10-23T04:48:28.446Z,13.20
2022-10-23T04:51:11.761Z,13.20
2022-10-23T04:54:10.606Z,13.30
2022-10-23T04:56:53.367Z,13.40
2022-10-23T04:59:18.096Z,13.40
2022-10-23T05:01:43.493Z,13.40
2022-10-23T05:04:06.886Z,13.50
2022-10-23T05:06:37.772Z,13.50
2022-10-23T05:09:27.221Z,13.50
2022-10-23T05:12:06.221Z,13.40
2022-10-23T05:14:29.641Z,13.50
2022-10-23T05:16:59.593Z,13.50
2022-10-23T05:19:27.803Z,13.50
2022-10-23T05:21:55.707Z,13.50
2022-10-23T05:24:22.805Z,13.50
2022-10-23T05:26:53.711Z,13.50
2022-10-23T05:29:17.403Z,13.50
2022-10-23T05:31:41.006Z,13.50
2022-10-23T05:34:12.611Z,13.50
2022-10-23T05:36:39.989Z,13.50
2022-10-23T05:39:04.052Z,13.50
2022-10-23T05:41:28.164Z,13.50
2022-10-23T05:43:54.585Z,13.50
2022-10-23T05:46:40.883Z,13.50
2022-10-23T05:49:38.058Z,13.60
2022-10-23T05:52:25.057Z,13.50
2022-10-23T05:55:20.372Z,13.70
2022-10-23T05:57:54.420Z,13.60
2022-10-23T06:00:31.026Z,13.60
2022-10-23T06:03:13.830Z,13.50
2022-10-23T06:05:41.043Z,13.50
2022-10-23T06:08:25.376Z,13.60
2022-10-23T06:10:49.794Z,13.60
2022-10-23T06:13:13.115Z,13.50
2022-10-23T06:15:37.146Z,13.50
2022-10-23T06:18:06.754Z,13.60
2022-10-23T06:20:33.282Z,13.60
2022-10-23T06:23:07.493Z,13.60
2022-10-23T06:25:53.491Z,13.60
2022-10-23T06:28:20.985Z,13.60
2022-10-23T06:30:44.832Z,13.60
2022-10-23T06:33:08.096Z,13.60
2022-10-23T06:35:31.529Z,13.50
2022-10-23T06:37:55.139Z,13.60
2022-10-23T06:40:32.564Z,13.60
2022-10-23T06:43:02.072Z,13.60
2022-10-23T06:45:39.822Z,13.60
2022-10-23T06:48:08.708Z,13.60
2022-10-23T06:50:47.911Z,13.80
2022-10-23T06:53:16.656Z,13.80
2022-10-23T06:55:50.024Z,13.80
2022-10-23T06:58:16.397Z,13.70
2022-10-23T07:00:55.751Z,13.80
2022-10-23T07:03:19.288Z,13.90
2022-10-23T07:05:44.789Z,13.80
2022-10-23T07:08:09.488Z,13.80
2022-10-23T07:10:37.912Z,13.90
2022-10-23T07:13:03.197Z,13.90
2022-10-23T07:15:37.911Z,14.00
2022-10-23T07:18:02.576Z,14.00
2022-10-23T07:20:37.784Z,14.00
2022-10-23T07:23:01.595Z,14.00
2022-10-23T07:25:31.154Z,14.00
2022-10-23T07:27:57.003Z,14.00
2022-10-23T07:30:24.261Z,14.10
2022-10-23T07:32:50.782Z,14.10
2022-10-23T07:35:34.417Z,14.10
2022-10-23T07:38:04.056Z,14.10
2022-10-23T07:40:31.268Z,14.20
2022-10-23T07:42:54.790Z,14.30
2022-10-23T07:45:18.222Z,14.40
2022-10-23T07:47:44.796Z,14.50
2022-10-23T07:50:10.794Z,14.50
2022-10-23T07:52:36.217Z,14.50
2022-10-23T07:55:07.084Z,14.70
2022-10-23T07:57:31.896Z,14.70
2022-10-23T08:00:07.200Z,14.80
2022-10-23T08:02:37.563Z,14.90
2022-10-23T08:05:02.317Z,15.00
2022-10-23T08:07:34.875Z,15.00
2022-10-23T08:09:58.100Z,15.10
2022-10-23T08:12:22.368Z,15.20
2022-10-23T08:14:45.724Z,15.30
2022-10-23T08:17:09.860Z,15.50
2022-10-23T08:19:51.615Z,15.50
2022-10-23T08:22:17.716Z,15.60
2022-10-23T08:24:41.026Z,15.70
2022-10-23T08:27:04.400Z,15.80
2022-10-23T08:29:27.894Z,15.90
2022-10-23T08:31:54.172Z,15.90
2022-10-23T08:34:21.849Z,16.00
2022-10-23T08:36:46.697Z,16.10
2022-10-23T08:39:12.304Z,16.20
2022-10-23T08:41:48.319Z,16.30
2022-10-23T08:44:22.949Z,16.10
2022-10-23T08:46:49.380Z,16.10
2022-10-23T08:49:50.642Z,16.00
2022-10-23T08:52:24.160Z,16.00
2022-10-23T08:54:58.721Z,16.00
2022-10-23T08:57:25.008Z,16.00
2022-10-23T08:59:51.444Z,16.10
2022-10-23T09:02:22.241Z,16.10
2022-10-23T09:04:49.838Z,16.10
2022-10-23T09:07:26.488Z,16.20
2022-10-23T09:10:20.265Z,16.20
2022-10-23T09:12:44.502Z,16.30
2022-10-23T09:15:22.094Z,16.30
2022-10-23T09:17:46.407Z,16.40
2022-10-23T09:20:20.378Z,16.50
2022-10-23T09:22:44.707Z,16.50
2022-10-23T09:25:16.776Z,16.50
2022-10-23T09:27:42.117Z,16.50
2022-10-23T09:30:07.497Z,16.50
2022-10-23T09:32:36.312Z,16.60
2022-10-23T09:34:59.530Z,16.60
2022-10-23T09:37:25.923Z,16.70
2022-10-23T09:39:49.213Z,16.60
2022-10-23T09:42:24.998Z,16.80
2022-10-23T09:44:51.559Z,16.80
2022-10-23T09:47:20.810Z,16.90
2022-10-23T09:49:50.374Z,17.00
2022-10-23T09:52:26.132Z,17.10
2022-10-23T09:54:52.774Z,17.10
2022-10-23T09:57:25.723Z,17.20
2022-10-23T09:59:53.501Z,17.30
2022-10-23T10:02:28.023Z,17.30
2022-10-23T10:05:25.244Z,17.40
2022-10-23T10:07:57.794Z,17.40
2022-10-23T10:10:21.092Z,17.30
2022-10-23T10:12:51.861Z,17.30
2022-10-23T10:15:24.467Z,17.40
2022-10-23T10:17:59.617Z,17.40
2022-10-23T10:20:47.273Z,17.50
2022-10-23T10:23:24.498Z,17.50
2022-10-23T10:26:00.223Z,17.50
2022-10-23T10:28:46.141Z,17.50
2022-10-23T10:31:20.195Z,17.50
2022-10-23T10:33:58.010Z,17.60
2022-10-23T10:36:40.072Z,17.60
2022-10-23T10:39:06.678Z,17.60
2022-10-23T10:41:46.053Z,17.60
2022-10-23T10:44:32.718Z,17.60
2022-10-23T10:47:00.255Z,17.70
2022-10-23T10:49:39.268Z,17.80
2022-10-23T10:52:25.974Z,17.80
2022-10-23T10:55:00.776Z,17.80
2022-10-23T10:57:32.886Z,17.90
2022-10-23T11:00:03.476Z,18.00
2022-10-23T11:02:30.916Z,18.00
2022-10-23T11:05:02.235Z,18.00
2022-10-23T11:07:33.805Z,18.00
2022-10-23T11:10:00.321Z,18.00
2022-10-23T11:12:27.714Z,18.00
2022-10-23T11:14:52.330Z,18.00
2022-10-23T11:17:25.149Z,18.00
2022-10-23T11:19:55.555Z,18.00
2022-10-23T11:22:26.480Z,18.10
2022-10-23T11:25:37.839Z,18.10
2022-10-23T11:28:20.796Z,18.10
2022-10-23T11:31:02.308Z,18.20
2022-10-23T11:34:18.859Z,18.20
2022-10-23T11:36:49.794Z,18.20
2022-10-23T11:39:24.148Z,18.10
2022-10-23T11:41:54.184Z,18.10
2022-10-23T11:44:41.156Z,18.10
2022-10-23T11:47:07.798Z,18.10
2022-10-23T11:49:32.879Z,18.10
2022-10-23T11:52:05.050Z,18.10
2022-10-23T11:54:28.565Z,18.10
2022-10-23T11:57:03.348Z,18.20
2022-10-23T11:59:31.878Z,18.20
2022-10-23T12:01:58.333Z,18.40
2022-10-23T12:04:25.625Z,18.50
2022-10-23T12:06:54.067Z,18.60
2022-10-23T12:09:29.069Z,18.70
2022-10-23T12:12:16.924Z,18.70
2022-10-23T12:14:43.198Z,18.80
2022-10-23T12:17:35.766Z,18.90
2022-10-23T12:20:19.183Z,18.90
2022-10-23T12:22:51.962Z,19.00
2022-10-23T12:25:18.004Z,18.90
2022-10-23T12:27:50.022Z,18.90
2022-10-23T12:30:22.964Z,18.80
2022-10-23T12:33:14.651Z,18.80
2022-10-23T12:36:08.628Z,18.80
2022-10-23T12:38:35.581Z,18.70
2022-10-23T12:41:09.674Z,18.70
2022-10-23T12:43:36.069Z,18.80
2022-10-23T12:46:05.832Z,18.80
2022-10-23T12:48:29.220Z,18.80
2022-10-23T12:50:56.403Z,18.80
2022-10-23T12:53:21.903Z,18.80
2022-10-23T12:55:54.611Z,18.70
2022-10-23T12:58:23.076Z,18.70
2022-10-23T13:00:53.278Z,18.70
2022-10-23T13:03:16.534Z,18.70
2022-10-23T13:05:39.958Z,18.70
2022-10-23T13:08:04.958Z,18.70
2022-10-23T13:10:39.673Z,18.70
2022-10-23T13:13:09.127Z,18.70
2022-10-23T13:15:40.066Z,18.70
2022-10-23T13:18:06.962Z,18.70
2022-10-23T13:20:34.521Z,18.60
2022-10-23T13:23:02.453Z,18.60
2022-10-23T13:25:28.358Z,18.50
2022-10-23T13:27:51.885Z,18.60
2022-10-23T13:30:33.676Z,18.60
2022-10-23T13:32:57.070Z,18.50
2022-10-23T13:35:24.479Z,18.50
2022-10-23T13:37:48.620Z,18.50
2022-10-23T13:40:24.932Z,18.50
2022-10-23T13:42:50.784Z,18.50
2022-10-23T13:45:21.020Z,18.50
2022-10-23T13:47:45.804Z,18.50
2022-10-23T13:50:11.293Z,18.50
2022-10-23T13:52:34.923Z,18.50
2022-10-23T13:54:58.225Z,18.50
2022-10-23T13:57:21.814Z,18.50
2022-10-23T13:59:45.038Z,18.50
2022-10-23T14:02:20.774Z,18.50
2022-10-23T14:04:46.390Z,18.50
2022-10-23T14:07:09.967Z,18.50
2022-10-23T14:09:34.144Z,18.50
2022-10-23T14:11:57.367Z,18.50
2022-10-23T14:14:20.571Z,18.50
2022-10-23T14:16:43.827Z,18.50
2022-10-23T14:19:07.897Z,18.50
2022-10-23T14:21:32.576Z,18.50
2022-10-23T14:23:56.204Z,18.50
2022-10-23T14:26:25.096Z,18.40
2022-10-23T14:28:48.375Z,18.40
2022-10-23T14:31:13.827Z,18.40
2022-10-23T14:33:37.152Z,18.30
2022-10-23T14:36:00.468Z,18.30
2022-10-23T14:38:25.230Z,18.30
2022-10-23T14:40:48.444Z,18.30
2022-10-23T14:43:11.754Z,18.30
2022-10-23T14:45:34.968Z,18.30
2022-10-23T14:47:58.273Z,18.40
2022-10-23T14:50:22.232Z,18.30
2022-10-23T14:52:45.472Z,18.30
2022-10-23T14:55:10.772Z,18.30
2022-10-23T14:57:34.418Z,18.20
2022-10-23T14:59:57.669Z,18.10
2022-10-23T15:02:20.913Z,18.10
2022-10-23T15:04:44.181Z,18.10
2022-10-23T15:07:07.795Z,18.10
2022-10-23T15:09:32.709Z,18.10
2022-10-23T15:11:57.281Z,18.10
2022-10-23T15:14:20.751Z,18.10
2022-10-23T15:16:44.086Z,18.00
2022-10-23T15:19:07.388Z,18.10
2022-10-23T15:21:30.767Z,18.00
2022-10-23T15:23:54.866Z,18.10
2022-10-23T15:26:23.052Z,18.10
2022-10-23T15:28:47.737Z,18.00
2022-10-23T15:31:47.438Z,18.00
2022-10-23T15:34:13.622Z,18.00
2022-10-23T15:36:36.977Z,17.90
2022-10-23T15:39:00.483Z,17.90
2022-10-23T15:41:29.683Z,18.00
2022-10-23T15:43:54.539Z,17.90
2022-10-23T15:46:17.911Z,17.80
2022-10-23T15:48:41.195Z,17.70
2022-10-23T15:51:04.688Z,17.50
2022-10-23T15:53:28.017Z,17.30
2022-10-23T15:55:51.277Z,17.10
2022-10-23T15:58:14.554Z,17.00
2022-10-23T16:00:40.245Z,17.00
2022-10-23T16:03:05.011Z,17.00
2022-10-23T16:05:28.289Z,17.00
2022-10-23T16:07:51.571Z,16.90
2022-10-23T16:10:14.838Z,16.80
2022-10-23T16:12:38.247Z,16.80
2022-10-23T16:15:01.529Z,16.80
2022-10-23T16:17:26.309Z,16.80
2022-10-23T16:19:49.594Z,16.80
2022-10-23T16:22:13.588Z,16.80
2022-10-23T16:24:36.778Z,16.80
2022-10-23T16:27:00.085Z,16.70
2022-10-23T16:29:24.338Z,16.70
2022-10-23T16:31:47.576Z,16.60
2022-10-23T16:34:12.984Z,16.60
2022-10-23T16:36:38.952Z,16.60
2022-10-23T16:39:22.209Z,16.60
2022-10-23T16:42:04.208Z,16.60
2022-10-23T16:44:40.421Z,16.60
2022-10-23T16:47:04.026Z,16.60
2022-10-23T16:49:29.811Z,16.60
2022-10-23T16:51:53.195Z,16.50
2022-10-23T16:54:17.580Z,16.40
2022-10-23T16:56:41.432Z,16.40
2022-10-23T16:59:05.472Z,16.50
2022-10-23T17:01:31.610Z,16.40
2022-10-23T17:03:56.961Z,16.40
2022-10-23T17:06:24.116Z,16.40
2022-10-23T17:08:48.268Z,16.40
2022-10-23T17:11:14.541Z,16.40
2022-10-23T17:13:40.287Z,16.40
2022-10-23T17:16:09.283Z,16.40
2022-10-23T17:18:32.557Z,16.40
2022-10-23T17:20:58.096Z,16.40
2022-10-23T17:23:23.341Z,16.40
2022-10-23T17:25:49.436Z,16.50
2022-10-23T17:28:12.687Z,16.50
2022-10-23T17:30:39.236Z,16.40
2022-10-23T17:33:02.425Z,16.40
2022-10-23T17:35:25.680Z,16.40
2022-10-23T17:37:50.440Z,16.50
2022-10-23T17:40:15.374Z,16.50
2022-10-23T17:42:38.611Z,16.50
2022-10-23T17:45:01.920Z,16.40
2022-10-23T17:47:25.268Z,16.40
2022-10-23T17:49:48.520Z,16.40
2022-10-23T17:52:14.298Z,16.40
2022-10-23T17:54:37.588Z,16.30
2022-10-23T17:57:02.158Z,16.20
2022-10-23T17:59:25.618Z,16.30
2022-10-23T18:01:49.452Z,16.30
2022-10-23T18:04:13.015Z,16.30
2022-10-23T18:06:42.425Z,16.30
2022-10-23T18:09:07.584Z,16.40
2022-10-23T18:11:33.838Z,16.40
2022-10-23T18:16:23.280Z,16.30
2022-10-23T18:18:48.070Z,16.50
2022-10-23T18:21:12.113Z,16.50
2022-10-23T18:23:36.229Z,16.40
2022-10-23T18:26:01.021Z,16.40
2022-10-23T18:28:24.258Z,16.30
2022-10-23T18:30:51.118Z,16.40
2022-10-23T18:33:17.167Z,16.40
2022-10-23T18:35:40.416Z,16.40
2022-10-23T18:38:04.356Z,16.40
2022-10-23T18:40:28.163Z,16.30
2022-10-23T18:42:52.042Z,16.40
2022-10-23T18:45:15.267Z,16.40
2022-10-23T18:47:40.025Z,16.40
2022-10-23T18:50:03.330Z,16.30
2022-10-23T18:52:26.549Z,16.30
2022-10-23T18:54:49.821Z,16.30
2022-10-23T18:57:13.047Z,16.30
2022-10-23T18:59:36.278Z,16.30
2022-10-23T19:01:59.735Z,16.40
2022-10-23T19:04:24.446Z,16.30
2022-10-23T19:06:52.734Z,16.30
2022-10-23T19:09:16.214Z,16.30
2022-10-23T19:11:40.391Z,16.30
2022-10-23T19:14:03.962Z,16.30
2022-10-23T19:16:31.511Z,16.20
2022-10-23T19:18:59.520Z,16.20
2022-10-23T19:21:31.103Z,16.10
2022-10-23T19:23:54.437Z,16.20
2022-10-23T19:26:18.004Z,16.10
2022-10-23T19:28:45.244Z,16.10
2022-10-23T19:31:09.860Z,16.00
2022-10-23T19:33:34.328Z,16.10
2022-10-23T19:35:59.371Z,16.10
2022-10-23T19:38:25.806Z,16.00
2022-10-23T19:40:49.058Z,16.10
2022-10-23T19:43:12.351Z,16.10
2022-10-23T19:45:35.896Z,16.00
2022-10-23T19:47:59.093Z,16.10
2022-10-23T19:50:22.424Z,16.10
2022-10-23T19:52:45.626Z,16.10
2022-10-23T19:55:11.636Z,16.10
2022-10-23T19:57:35.380Z,16.00
2022-10-23T19:59:58.639Z,16.00
2022-10-23T20:02:22.591Z,16.00
2022-10-23T20:04:45.963Z,16.10
2022-10-23T20:07:09.282Z,16.10
2022-10-23T20:09:32.463Z,16.10
2022-10-23T20:11:57.498Z,16.10
2022-10-23T20:14:21.733Z,16.10
2022-10-23T20:16:50.158Z,16.10
2022-10-23T20:19:18.499Z,16.10
2022-10-23T20:21:44.659Z,16.00
2022-10-23T20:24:09.533Z,16.00
2022-10-23T20:26:32.833Z,16.00
2022-10-23T20:28:58.336Z,16.00
2022-10-23T20:31:23.530Z,16.20
2022-10-23T20:33:46.824Z,16.10
2022-10-23T20:36:22.930Z,15.80
2022-10-23T20:38:46.211Z,15.70
2022-10-23T20:41:09.419Z,15.60
2022-10-23T20:43:34.221Z,15.50
2022-10-23T20:45:59.419Z,15.50
2022-10-23T20:48:22.632Z,15.50
2022-10-23T20:50:45.891Z,15.50
2022-10-23T20:53:09.103Z,15.50
2022-10-23T20:55:32.436Z,15.50
2022-10-23T20:57:56.090Z,15.40
2022-10-23T21:00:19.508Z,15.40
2022-10-23T21:02:47.102Z,15.40
2022-10-23T21:05:13.435Z,15.30
2022-10-23T21:07:36.792Z,15.20
2022-10-23T21:10:00.051Z,15.20
2022-10-23T21:12:23.395Z,15.10
2022-10-23T21:14:46.678Z,15.00
2022-10-23T21:17:14.144Z,15.00
2022-10-23T21:19:40.473Z,15.00
2022-10-23T21:22:03.688Z,14.90
2022-10-23T21:24:27.087Z,14.90
2022-10-23T21:26:50.335Z,14.90
2022-10-23T21:29:18.371Z,14.90
2022-10-23T21:31:42.982Z,14.90
2022-10-23T21:34:06.680Z,14.80
2022-10-23T21:36:34.280Z,14.80
2022-10-23T21:39:04.029Z,14.80
2022-10-23T21:41:30.855Z,14.70
2022-10-23T21:43:55.405Z,14.80
2022-10-23T21:46:20.232Z,14.70
2022-10-23T21:48:44.343Z,14.80
2022-10-23T21:51:07.976Z,14.70
2022-10-23T21:53:32.721Z,14.80
2022-10-23T21:55:57.561Z,14.70
2022-10-23T21:58:20.850Z,14.50
2022-10-23T22:00:44.139Z,14.50
2022-10-23T22:03:07.373Z,14.50
2022-10-23T22:05:30.675Z,14.70
2022-10-23T22:07:53.919Z,14.70
2022-10-23T22:10:18.700Z,14.80
2022-10-23T22:12:42.884Z,14.80
2022-10-23T22:15:07.677Z,14.80
2022-10-23T22:17:30.976Z,14.80
2022-10-23T22:19:54.230Z,14.70
2022-10-23T22:22:17.506Z,14.70
2022-10-23T22:24:40.897Z,14.70
2022-10-23T22:27:05.858Z,14.80
2022-10-23T22:29:30.861Z,14.80
2022-10-23T22:31:54.379Z,14.80
2022-10-23T22:34:33.995Z,14.80
2022-10-23T22:37:03.854Z,14.80
2022-10-23T22:39:27.068Z,14.90
2022-10-23T22:41:50.816Z,14.80
2022-10-23T22:44:16.548Z,14.90
2022-10-23T22:46:39.866Z,14.90
2022-10-23T22:49:03.515Z,14.80
2022-10-23T22:51:29.017Z,14.80
2022-10-23T22:53:52.281Z,14.70
2022-10-23T22:56:17.618Z,14.80
2022-10-23T22:58:40.911Z,14.70
2022-10-23T23:01:10.988Z,14.80
2022-10-23T23:03:36.352Z,14.80
2022-10-23T23:05:59.580Z,14.80
2022-10-23T23:08:22.848Z,14.80
2022-10-23T23:10:53.767Z,14.90
2022-10-23T23:13:17.029Z,14.90
2022-10-23T23:15:41.930Z,14.90
2022-10-23T23:18:06.753Z,14.80
2022-10-23T23:20:29.974Z,14.80
2022-10-23T23:22:53.176Z,14.80
2022-10-23T23:25:16.787Z,14.80
2022-10-23T23:27:40.651Z,14.80
2022-10-23T23:30:06.365Z,14.80
2022-10-23T23:32:29.604Z,14.80
2022-10-23T23:34:54.192Z,14.80
2022-10-23T23:37:17.709Z,14.80
2022-10-23T23:39:40.929Z,14.90
2022-10-23T23:42:04.407Z,14.90
2022-10-23T23:44:27.678Z,14.80
2022-10-23T23:46:50.889Z,14.90
2022-10-23T23:49:14.156Z,15.00
2022-10-23T23:51:38.766Z,14.90
2022-10-23T23:54:02.002Z,14.80
2022-10-23T23:56:25.245Z,14.80
2022-10-23T23:58:48.478Z,14.80
